Time;durP1;ratioP1;P1;durP2;ratioP2;P2;SDS_P1;SDS_P2;PMS_P1;PMS_P2;Temp;Humidity;BMP_temperature;BMP_pressure;BME280_temperature;BME280_humidity;BME280_pressure;Samples;Min_cycle;Max_cycle;Signal;HPM_P1;HPM_P2
2023/03/01 00:01:43;;;;;;;27.30;16.63;;;-0.30;1.00;;;;;;6163817;23;20270;-77
2023/03/01 00:04:11;;;;;;;23.33;15.98;;;-0.30;1.00;;;;;;6164002;23;20230;-77
2023/03/01 00:06:38;;;;;;;24.35;15.75;;;-0.40;1.00;;;;;;6164074;23;20219;-76
2023/03/01 00:09:07;;;;;;;25.55;14.63;;;-0.30;1.00;;;;;;6165261;23;20218;-77
2023/03/01 00:11:35;;;;;;;21.50;14.35;;;-0.30;1.00;;;;;;6164238;23;20981;-77
2023/03/01 00:14:06;;;;;;;21.92;12.88;;;-0.30;1.00;;;;;;6164121;23;20227;-76
2023/03/01 00:16:35;;;;;;;24.67;15.05;;;-0.30;1.00;;;;;;6162986;23;20215;-76
2023/03/01 00:19:04;;;;;;;25.92;14.18;;;-0.20;1.00;;;;;;6164849;23;21019;-77
2023/03/01 00:21:31;;;;;;;24.20;15.70;;;-0.30;1.00;;;;;;6162932;23;20210;-77
2023/03/01 00:23:57;;;;;;;24.77;15.57;;;-0.30;1.00;;;;;;6165368;23;20227;-77
2023/03/01 00:26:26;;;;;;;26.42;14.40;;;-0.30;1.00;;;;;;6162806;23;20975;-77
2023/03/01 00:28:55;;;;;;;21.00;14.23;;;-0.30;1.00;;;;;;6164985;23;20218;-78
2023/03/01 00:31:24;;;;;;;23.30;15.30;;;-0.30;1.00;;;;;;6163095;23;20218;-76
2023/03/01 00:33:56;;;;;;;22.15;15.30;;;-0.30;1.00;;;;;;6137795;23;20207;-77
2023/03/01 00:36:27;;;;;;;21.67;13.05;;;-0.40;1.00;;;;;;6137138;23;20298;-78
2023/03/01 00:38:54;;;;;;;23.52;15.18;;;-0.50;1.00;;;;;;6163041;23;21017;-77
2023/03/01 00:41:23;;;;;;;24.23;15.27;;;-0.50;1.00;;;;;;6162748;23;20987;-76
2023/03/01 00:43:51;;;;;;;23.08;14.20;;;-0.60;1.00;;;;;;6163502;23;20326;-76
2023/03/01 00:46:23;;;;;;;19.90;13.93;;;-0.60;1.00;;;;;;6161210;23;20215;-77
2023/03/01 00:48:51;;;;;;;26.48;13.98;;;-0.60;1.00;;;;;;6163371;23;20691;-77
2023/03/01 00:51:22;;;;;;;22.85;15.73;;;-0.60;1.00;;;;;;6163413;23;20223;-76
2023/03/01 00:53:54;;;;;;;24.40;14.48;;;-0.60;1.00;;;;;;6163564;23;20219;-77
2023/03/01 00:56:22;;;;;;;20.42;14.43;;;-0.50;1.00;;;;;;6133924;23;20219;-77
2023/03/01 00:58:51;;;;;;;22.00;14.07;;;-0.40;1.00;;;;;;6164846;23;20915;-77
2023/03/01 01:01:21;;;;;;;21.65;14.40;;;-0.40;1.00;;;;;;6162956;23;20545;-77
2023/03/01 01:03:50;;;;;;;24.05;14.27;;;-0.30;1.00;;;;;;6163556;23;20222;-77
2023/03/01 01:06:19;;;;;;;22.33;15.60;;;-0.40;1.00;;;;;;6162875;23;20910;-78
2023/03/01 01:08:46;;;;;;;24.40;15.77;;;-0.30;1.00;;;;;;6128914;23;21044;-79
2023/03/01 01:11:15;;;;;;;24.88;16.08;;;-0.40;1.00;;;;;;6156296;23;20230;-77
2023/03/01 01:13:42;;;;;;;22.67;13.75;;;-0.40;1.00;;;;;;6162137;23;20283;-78
2023/03/01 01:16:10;;;;;;;26.45;15.23;;;-0.40;1.00;;;;;;6163690;23;20218;-78
2023/03/01 01:18:37;;;;;;;25.02;16.23;;;-0.50;1.00;;;;;;6162417;23;20249;-77
2023/03/01 01:21:06;;;;;;;23.65;15.50;;;-0.50;1.00;;;;;;6164664;23;20246;-77
2023/03/01 01:23:34;;;;;;;24.98;16.08;;;-0.60;1.00;;;;;;6164040;23;20277;-78
2023/03/01 01:26:05;;;;;;;23.73;15.27;;;-0.70;1.00;;;;;;6161849;23;20215;-76
2023/03/01 01:28:38;;;;;;;23.38;14.05;;;-0.70;1.00;;;;;;6161738;23;20219;-76
2023/03/01 01:31:07;;;;;;;24.15;14.95;;;-0.70;1.00;;;;;;6162342;23;20214;-77
2023/03/01 01:33:37;;;;;;;22.42;16.27;;;-0.60;1.00;;;;;;6162674;23;20246;-77
2023/03/01 01:36:05;;;;;;;23.60;16.05;;;-0.60;1.00;;;;;;6163590;23;20270;-77
2023/03/01 01:38:34;;;;;;;28.67;15.32;;;-0.50;1.00;;;;;;6146015;23;20882;-78
2023/03/01 01:41:01;;;;;;;23.20;16.52;;;-0.60;1.00;;;;;;6141394;23;20242;-78
2023/03/01 01:43:30;;;;;;;21.95;14.75;;;-0.60;1.00;;;;;;6162392;23;20707;-78
2023/03/01 01:46:02;;;;;;;21.52;15.13;;;-0.70;1.00;;;;;;6163408;23;20220;-77
2023/03/01 01:48:42;;;;;;;25.67;15.95;;;-0.80;1.00;;;;;;6163747;23;20214;-76
2023/03/01 01:51:27;;;;;;;24.40;14.82;;;-0.80;1.00;;;;;;6137843;23;20222;-77
2023/03/01 01:54:02;;;;;;;22.15;15.45;;;-0.80;1.00;;;;;;6153400;23;20222;-76
2023/03/01 01:56:30;;;;;;;24.17;15.50;;;-0.90;1.00;;;;;;6163129;23;20277;-76
2023/03/01 01:58:58;;;;;;;24.63;16.00;;;-0.90;1.00;;;;;;6161510;23;20214;-76
2023/03/01 02:01:29;;;;;;;21.38;14.98;;;-0.80;1.00;;;;;;6161034;23;20222;-81
2023/03/01 02:03:56;;;;;;;22.13;14.57;;;-0.90;1.00;;;;;;6161372;23;20219;-80
2023/03/01 02:06:28;;;;;;;28.45;16.45;;;-0.90;1.00;;;;;;6159930;23;20222;-80
2023/03/01 02:09:00;;;;;;;25.70;16.00;;;-1.00;1.00;;;;;;6161514;23;20218;-80
2023/03/01 02:11:30;;;;;;;20.20;14.45;;;-1.00;1.00;;;;;;6158530;23;20857;-78
2023/03/01 02:13:59;;;;;;;23.50;16.13;;;-1.00;1.00;;;;;;6160340;23;20214;-79
2023/03/01 02:16:30;;;;;;;23.77;15.50;;;-1.00;1.00;;;;;;6159631;23;20692;-79
2023/03/01 02:18:58;;;;;;;23.50;16.20;;;-1.00;1.00;;;;;;6160917;23;20245;-78
2023/03/01 02:21:36;;;;;;;24.23;15.00;;;-1.10;1.00;;;;;;6159659;23;20222;-80
2023/03/01 02:24:15;;;;;;;18.33;13.50;;;-1.00;1.00;;;;;;6160069;23;20281;-80
2023/03/01 02:26:49;;;;;;;23.13;14.65;;;-0.90;1.00;;;;;;6159770;23;20221;-79
2023/03/01 02:29:18;;;;;;;19.70;14.25;;;-0.90;1.00;;;;;;6134018;23;20566;-78
2023/03/01 02:31:44;;;;;;;24.25;15.40;;;-0.90;1.00;;;;;;6159682;23;20226;-80
2023/03/01 02:34:14;;;;;;;24.10;15.52;;;-1.00;1.00;;;;;;6161526;23;20307;-79
2023/03/01 02:36:46;;;;;;;25.10;15.40;;;-1.10;1.00;;;;;;6158962;23;20269;-81
2023/03/01 02:39:21;;;;;;;27.80;15.32;;;-1.10;1.00;;;;;;6161587;23;20688;-79
2023/03/01 02:41:51;;;;;;;25.80;15.85;;;-1.10;1.00;;;;;;6160743;23;20210;-79
2023/03/01 02:44:22;;;;;;;25.20;18.05;;;-1.10;1.00;;;;;;6162995;23;20227;-79
2023/03/01 02:46:53;;;;;;;33.25;22.55;;;-1.20;1.00;;;;;;6162371;23;20233;-80
2023/03/01 02:49:24;;;;;;;30.70;20.80;;;-1.20;1.00;;;;;;6161209;23;20225;-80
2023/03/01 02:52:08;;;;;;;31.42;21.05;;;-1.30;1.00;;;;;;6162522;23;20218;-79
2023/03/01 02:54:45;;;;;;;31.13;20.33;;;-1.30;1.00;;;;;;6160820;23;20269;-79
2023/03/01 02:57:13;;;;;;;29.30;18.25;;;-1.30;1.00;;;;;;6162214;23;20945;-80
2023/03/01 02:59:43;;;;;;;23.15;17.00;;;-1.40;1.00;;;;;;6135967;23;20223;-80
2023/03/01 03:02:35;;;;;;;22.85;14.82;;;-1.40;1.00;;;;;;6161694;23;20246;-79
2023/03/01 03:05:08;;;;;;;22.50;14.52;;;-1.40;1.00;;;;;;6162838;23;20222;-79
2023/03/01 03:07:36;;;;;;;23.27;14.95;;;-1.50;1.00;;;;;;6161491;23;20620;-79
2023/03/01 03:10:04;;;;;;;20.85;14.93;;;-1.50;1.00;;;;;;6161995;23;20210;-79
2023/03/01 03:12:31;;;;;;;25.90;14.38;;;-1.50;1.00;;;;;;6161279;23;20207;-79
2023/03/01 03:15:00;;;;;;;21.83;15.43;;;-1.60;1.00;;;;;;6162322;23;20301;-80
2023/03/01 03:17:26;;;;;;;25.27;16.02;;;-1.50;1.00;;;;;;6161897;23;20772;-79
2023/03/01 03:19:53;;;;;;;25.17;17.48;;;-1.60;1.00;;;;;;6161669;23;20214;-80
2023/03/01 03:22:20;;;;;;;27.38;19.10;;;-1.50;1.00;;;;;;6161624;23;20278;-79
2023/03/01 03:24:49;;;;;;;27.45;20.02;;;-1.50;1.00;;;;;;6159370;23;21012;-79
2023/03/01 03:27:16;;;;;;;30.55;20.92;;;-1.50;1.00;;;;;;6162578;23;20214;-80
2023/03/01 03:29:44;;;;;;;26.60;20.73;;;-1.50;1.00;;;;;;6160521;23;20278;-80
2023/03/01 03:32:13;;;;;;;31.40;20.85;;;-1.50;1.00;;;;;;6163068;23;20238;-79
2023/03/01 03:34:40;;;;;;;29.70;18.40;;;-1.50;1.00;;;;;;6162326;23;20230;-79
2023/03/01 03:38:01;;;;;;;31.27;20.10;;;-1.50;1.00;;;;;;6163223;23;20213;-79
2023/03/01 03:39:56;;;;;;;28.83;20.38;;;-1.60;1.00;;;;;;6161984;23;20328;-79
2023/03/01 03:42:23;;;;;;;26.95;18.23;;;-1.70;1.00;;;;;;6162032;23;20311;-79
2023/03/01 03:44:52;;;;;;;27.80;19.70;;;-1.80;1.00;;;;;;6162854;23;20297;-76
2023/03/01 03:47:20;;;;;;;23.55;16.98;;;-1.80;1.00;;;;;;6160394;23;20926;-76
2023/03/01 03:49:47;;;;;;;25.27;16.95;;;-1.90;1.00;;;;;;6159485;23;20572;-77
2023/03/01 03:52:14;;;;;;;27.30;19.00;;;-1.90;1.00;;;;;;6158752;23;20222;-76
2023/03/01 03:54:41;;;;;;;28.48;20.45;;;-1.80;1.00;;;;;;6158553;23;20223;-75
2023/03/01 03:57:08;;;;;;;29.75;18.38;;;-1.80;1.00;;;;;;6160708;23;20271;-77
2023/03/01 03:59:36;;;;;;;25.75;17.88;;;-1.90;1.00;;;;;;6158739;23;20214;-75
2023/03/01 04:02:04;;;;;;;24.60;19.23;;;-2.00;1.00;;;;;;6160788;23;20215;-76
2023/03/01 04:04:36;;;;;;;30.52;21.45;;;-1.90;1.00;;;;;;6159840;23;20234;-76
2023/03/01 04:07:05;;;;;;;28.38;19.20;;;-1.80;1.00;;;;;;6160346;23;20225;-75
2023/03/01 04:09:32;;;;;;;25.40;18.75;;;-1.90;1.00;;;;;;6159651;23;20211;-77
2023/03/01 04:12:00;;;;;;;26.73;20.05;;;-1.80;1.00;;;;;;6160095;23;20215;-75
2023/03/01 04:14:28;;;;;;;28.60;20.13;;;-1.80;1.00;;;;;;6157587;23;20267;-75
2023/03/01 04:16:55;;;;;;;27.58;19.58;;;-1.90;1.00;;;;;;6159436;23;20530;-74
2023/03/01 04:19:26;;;;;;;26.80;18.73;;;-1.80;1.00;;;;;;6159222;23;20299;-76
2023/03/01 04:21:55;;;;;;;26.48;20.40;;;-1.80;1.00;;;;;;6160124;23;20975;-75
2023/03/01 04:24:22;;;;;;;29.35;21.38;;;-1.80;1.00;;;;;;6160115;23;20218;-75
2023/03/01 04:26:49;;;;;;;28.17;19.92;;;-1.90;1.00;;;;;;6158443;23;20225;-76
2023/03/01 04:29:16;;;;;;;22.40;16.52;;;-2.00;1.00;;;;;;6158337;23;20207;-77
2023/03/01 04:31:43;;;;;;;25.15;16.13;;;-1.90;1.00;;;;;;6160385;23;20218;-75
2023/03/01 04:34:10;;;;;;;25.27;18.90;;;-1.90;1.00;;;;;;6158971;23;20238;-75
2023/03/01 04:36:37;;;;;;;29.00;19.40;;;-1.90;1.00;;;;;;6159071;23;20218;-75
2023/03/01 04:39:11;;;;;;;26.95;17.85;;;-1.90;1.00;;;;;;6160016;23;20917;-76
2023/03/01 04:41:43;;;;;;;25.00;18.65;;;-1.90;1.00;;;;;;6157301;23;20252;-74
2023/03/01 04:44:10;;;;;;;20.88;16.02;;;-1.90;1.00;;;;;;6157321;23;20994;-76
2023/03/01 04:46:37;;;;;;;25.95;17.05;;;-1.90;1.00;;;;;;6159128;23;20223;-76
2023/03/01 04:49:05;;;;;;;27.83;18.30;;;-1.90;1.00;;;;;;6158991;23;20247;-75
2023/03/01 04:51:33;;;;;;;22.90;16.67;;;-1.90;1.00;;;;;;6159525;23;20231;-75
2023/03/01 04:54:01;;;;;;;24.67;17.83;;;-1.90;1.00;;;;;;6132860;23;20225;-74
2023/03/01 04:56:31;;;;;;;24.63;17.42;;;-1.90;1.00;;;;;;6159115;23;20294;-74
2023/03/01 04:59:01;;;;;;;27.35;19.10;;;-1.90;1.00;;;;;;6158082;23;20221;-74
2023/03/01 05:01:29;;;;;;;26.48;18.10;;;-1.90;1.00;;;;;;6156126;23;20610;-75
2023/03/01 05:03:56;;;;;;;26.55;18.20;;;-2.00;1.00;;;;;;6158682;23;20214;-76
2023/03/01 05:06:23;;;;;;;25.90;18.23;;;-2.00;1.00;;;;;;6156796;23;20223;-75
2023/03/01 05:08:50;;;;;;;23.33;18.02;;;-2.10;1.00;;;;;;6125700;23;20298;-75
2023/03/01 05:11:17;;;;;;;30.20;19.70;;;-2.10;1.00;;;;;;6151980;23;20271;-75
2023/03/01 05:13:47;;;;;;;27.70;18.70;;;-2.10;1.00;;;;;;6159472;23;20215;-78
2023/03/01 05:16:14;;;;;;;27.20;19.33;;;-2.10;1.00;;;;;;6157073;23;20293;-77
2023/03/01 05:18:43;;;;;;;26.95;19.17;;;-2.10;1.00;;;;;;6157282;23;20222;-75
2023/03/01 05:21:15;;;;;;;24.88;19.35;;;-2.20;1.00;;;;;;6158874;23;20309;-74
2023/03/01 05:23:43;;;;;;;28.13;18.65;;;-2.20;1.00;;;;;;6159909;23;20211;-76
2023/03/01 05:26:13;;;;;;;23.35;17.55;;;-2.30;1.00;;;;;;6158922;23;20207;-74
2023/03/01 05:28:40;;;;;;;26.83;18.23;;;-2.30;1.00;;;;;;6128689;23;20222;-75
2023/03/01 05:31:09;;;;;;;24.17;18.42;;;-2.30;1.00;;;;;;6158923;23;20289;-74
2023/03/01 05:33:37;;;;;;;30.17;19.13;;;-2.40;1.00;;;;;;6124630;23;20307;-75
2023/03/01 05:36:07;;;;;;;63.03;34.95;;;-2.30;1.00;;;;;;6146813;23;20245;-75
2023/03/01 05:38:36;;;;;;;34.35;23.02;;;-2.30;1.00;;;;;;6130379;23;20226;-74
2023/03/01 05:41:04;;;;;;;23.25;17.67;;;-2.20;1.00;;;;;;6159341;23;20222;-76
2023/03/01 05:43:34;;;;;;;24.92;16.05;;;-2.20;1.00;;;;;;6157025;23;20229;-75
2023/03/01 05:46:01;;;;;;;24.92;17.33;;;-2.20;1.00;;;;;;6159212;23;20215;-76
2023/03/01 05:48:32;;;;;;;30.73;18.00;;;-2.20;1.00;;;;;;6157993;23;20297;-75
2023/03/01 05:51:04;;;;;;;26.15;16.90;;;-2.20;1.00;;;;;;6158591;23;20246;-75
2023/03/01 05:53:31;;;;;;;27.42;17.33;;;-2.20;1.00;;;;;;6156276;23;20215;-73
2023/03/01 05:56:01;;;;;;;29.85;16.58;;;-2.20;1.00;;;;;;6159358;23;20242;-75
2023/03/01 05:58:28;;;;;;;25.45;17.95;;;-2.20;1.00;;;;;;6156482;23;20282;-74
2023/03/01 06:00:55;;;;;;;21.90;15.52;;;-2.20;1.00;;;;;;6157198;23;21641;-74
2023/03/01 06:03:22;;;;;;;25.60;16.88;;;-2.20;1.00;;;;;;6159525;23;20219;-75
2023/03/01 06:05:57;;;;;;;25.40;15.63;;;-2.10;1.00;;;;;;6135359;23;20214;-75
2023/03/01 06:08:26;;;;;;;27.25;19.88;;;-2.20;1.00;;;;;;6160186;23;20218;-75
2023/03/01 06:10:53;;;;;;;25.58;17.60;;;-2.10;1.00;;;;;;6160158;23;20219;-73
2023/03/01 06:13:21;;;;;;;24.92;15.88;;;-2.20;1.00;;;;;;6157732;23;20230;-75
2023/03/01 06:15:48;;;;;;;30.10;18.95;;;-2.10;1.00;;;;;;6158164;23;21597;-75
2023/03/01 06:18:17;;;;;;;26.48;19.08;;;-2.00;1.00;;;;;;6159944;23;20211;-78
2023/03/01 06:20:44;;;;;;;28.80;18.75;;;-2.10;1.00;;;;;;6158487;23;20215;-76
2023/03/01 06:23:12;;;;;;;30.70;17.80;;;-1.90;1.00;;;;;;6157678;23;20305;-76
2023/03/01 06:25:39;;;;;;;27.80;18.85;;;-1.80;1.00;;;;;;6159205;23;20218;-76
2023/03/01 06:28:06;;;;;;;29.65;18.75;;;-1.70;1.00;;;;;;6160162;23;20218;-76
2023/03/01 06:30:36;;;;;;;29.83;20.90;;;-1.60;1.00;;;;;;6157714;23;20210;-77
2023/03/01 06:33:04;;;;;;;25.80;20.33;;;-1.50;1.00;;;;;;6161043;23;20929;-76
2023/03/01 06:35:32;;;;;;;25.05;18.83;;;-1.40;1.00;;;;;;6158571;23;20215;-75
2023/03/01 06:38:01;;;;;;;28.67;20.70;;;-1.30;1.00;;;;;;6155753;23;20813;-77
2023/03/01 06:40:31;;;;;;;27.50;20.50;;;-1.20;1.00;;;;;;6160139;23;20214;-75
2023/03/01 06:42:58;;;;;;;30.90;22.20;;;-1.10;1.00;;;;;;6157441;23;20237;-76
2023/03/01 06:45:28;;;;;;;29.70;21.70;;;-1.00;1.00;;;;;;6145470;23;20270;-77
2023/03/01 06:48:03;;;;;;;27.30;20.33;;;-0.90;1.00;;;;;;6138270;23;20218;-75
2023/03/01 06:50:30;;;;;;;27.80;21.55;;;-0.80;1.00;;;;;;6160512;23;20565;-74
2023/03/01 06:52:59;;;;;;;30.83;21.55;;;-0.70;1.00;;;;;;6160339;23;20222;-75
2023/03/01 06:55:26;;;;;;;35.83;24.60;;;-0.60;1.00;;;;;;6160060;23;20241;-78
2023/03/01 06:57:58;;;;;;;32.05;25.33;;;-0.50;1.00;;;;;;6159999;23;20214;-77
2023/03/01 07:00:26;;;;;;;28.67;20.90;;;-0.40;1.00;;;;;;6157890;23;20246;-77
2023/03/01 07:02:53;;;;;;;34.70;24.48;;;-0.40;1.00;;;;;;6160100;23;20214;-75
2023/03/01 07:05:21;;;;;;;28.63;19.67;;;-0.50;1.00;;;;;;6158108;23;20211;-77
2023/03/01 07:07:50;;;;;;;30.75;20.88;;;-0.40;1.00;;;;;;6135507;23;20309;-74
2023/03/01 07:10:18;;;;;;;27.50;18.17;;;-0.40;1.00;;;;;;6159288;23;20218;-77
2023/03/01 07:12:46;;;;;;;27.48;17.83;;;-0.30;1.00;;;;;;6159858;23;20219;-75
2023/03/01 07:15:17;;;;;;;29.95;21.08;;;-0.30;1.00;;;;;;6160478;23;20296;-74
2023/03/01 07:17:47;;;;;;;27.40;18.92;;;-0.20;1.00;;;;;;6146804;23;20219;-75
2023/03/01 07:20:25;;;;;;;37.13;23.50;;;0.00;1.00;;;;;;6158467;23;20211;-75
2023/03/01 07:22:52;;;;;;;28.08;19.98;;;0.10;1.00;;;;;;6159541;23;20214;-76
2023/03/01 07:25:19;;;;;;;30.50;22.42;;;0.10;1.00;;;;;;6158733;23;20225;-75
2023/03/01 07:27:51;;;;;;;29.95;21.60;;;0.30;1.00;;;;;;6158124;23;20298;-75
2023/03/01 07:30:21;;;;;;;30.45;21.98;;;0.40;1.00;;;;;;6159422;23;20222;-76
2023/03/01 07:32:49;;;;;;;28.95;19.42;;;0.50;1.00;;;;;;6157757;23;20222;-74
2023/03/01 07:35:17;;;;;;;29.65;20.42;;;0.60;1.00;;;;;;6159312;23;20297;-76
2023/03/01 07:37:45;;;;;;;30.35;19.48;;;0.80;1.00;;;;;;6157542;23;20219;-76
2023/03/01 07:40:14;;;;;;;26.70;19.35;;;0.90;1.00;;;;;;6156913;23;20306;-74
2023/03/01 07:42:43;;;;;;;27.27;20.30;;;1.00;1.00;;;;;;6126459;23;21025;-77
2023/03/01 07:45:13;;;;;;;27.83;19.48;;;1.20;1.00;;;;;;6154277;23;20265;-77
2023/03/01 07:47:41;;;;;;;33.50;21.38;;;1.40;1.00;;;;;;6132022;23;20219;-75
2023/03/01 07:50:13;;;;;;;40.97;23.10;;;1.40;1.00;;;;;;6160407;23;20221;-76
2023/03/01 07:52:41;;;;;;;38.15;26.48;;;1.60;1.00;;;;;;6159880;23;20329;-76
2023/03/01 07:55:09;;;;;;;30.35;21.05;;;1.70;1.00;;;;;;6158410;23;20230;-76
2023/03/01 07:57:36;;;;;;;29.75;22.15;;;1.80;1.00;;;;;;6158741;23;20269;-76
2023/03/01 08:00:06;;;;;;;35.28;23.83;;;1.90;1.00;;;;;;6157640;23;20219;-76
2023/03/01 08:02:33;;;;;;;28.50;21.83;;;2.00;1.00;;;;;;6161122;23;20274;-75
2023/03/01 08:05:02;;;;;;;31.50;22.08;;;2.20;1.00;;;;;;6161464;23;20246;-75
2023/03/01 08:07:30;;;;;;;27.73;22.50;;;2.50;1.00;;;;;;6158703;23;20223;-77
2023/03/01 08:09:57;;;;;;;30.23;22.23;;;2.60;1.00;;;;;;6156973;23;20218;-77
2023/03/01 08:12:27;;;;;;;28.00;19.88;;;2.80;1.00;;;;;;6158443;23;20222;-75
2023/03/01 08:14:55;;;;;;;27.60;19.38;;;2.90;1.00;;;;;;6159421;23;20262;-77
2023/03/01 08:17:22;;;;;;;29.30;19.95;;;3.10;1.00;;;;;;6157552;23;20219;-74
2023/03/01 08:19:49;;;;;;;30.30;20.02;;;3.30;1.00;;;;;;6157527;23;20298;-76
2023/03/01 08:22:17;;;;;;;33.78;20.35;;;3.40;1.00;;;;;;6159286;23;20219;-76
2023/03/01 08:24:47;;;;;;;37.47;20.30;;;3.60;1.00;;;;;;6159051;23;20219;-76
2023/03/01 08:27:16;;;;;;;37.83;21.88;;;3.70;1.00;;;;;;6159055;23;20305;-75
2023/03/01 08:29:46;;;;;;;28.63;17.17;;;3.90;1.00;;;;;;6161256;23;21045;-74
2023/03/01 08:32:13;;;;;;;32.63;16.60;;;4.10;1.00;;;;;;6158858;23;20229;-76
2023/03/01 08:34:41;;;;;;;20.02;14.68;;;4.20;1.00;;;;;;6157553;23;20240;-74
2023/03/01 08:37:09;;;;;;;41.97;16.63;;;4.30;1.00;;;;;;6160787;23;20671;-76
2023/03/01 08:39:40;;;;;;;30.98;18.27;;;4.40;1.00;;;;;;6157582;23;21088;-75
2023/03/01 08:42:07;;;;;;;21.40;15.57;;;4.60;1.00;;;;;;6160343;23;20215;-75
2023/03/01 08:44:35;;;;;;;34.63;18.50;;;4.80;1.00;;;;;;6159245;23;20267;-75
2023/03/01 08:47:04;;;;;;;30.70;15.65;;;4.90;1.00;;;;;;6160365;23;20218;-75
2023/03/01 08:49:33;;;;;;;27.65;14.80;;;5.10;1.00;;;;;;6159413;23;20215;-75
2023/03/01 08:52:01;;;;;;;26.42;15.27;;;5.40;1.00;;;;;;6159448;23;20225;-73
2023/03/01 08:54:30;;;;;;;42.00;18.05;;;5.90;1.00;;;;;;6159721;23;20221;-74
2023/03/01 08:57:00;;;;;;;28.23;15.77;;;7.00;1.00;;;;;;6162444;23;20945;-75
2023/03/01 08:59:29;;;;;;;21.35;11.98;;;7.90;1.00;;;;;;6157619;23;20210;-77
2023/03/01 09:01:58;;;;;;;25.83;13.27;;;9.00;1.00;;;;;;6158237;23;20221;-75
2023/03/01 09:04:25;;;;;;;14.77;9.87;;;10.40;1.00;;;;;;6156428;23;20439;-78
2023/03/01 09:06:54;;;;;;;13.23;10.07;;;11.90;1.00;;;;;;6131376;23;20442;-76
2023/03/01 09:09:21;;;;;;;13.60;10.80;;;13.30;1.00;;;;;;6154355;23;20516;-77
2023/03/01 09:11:49;;;;;;;16.60;10.30;;;14.10;1.00;;;;;;6125310;23;20499;-78
2023/03/01 09:14:21;;;;;;;16.30;9.60;;;15.20;1.00;;;;;;6151787;23;20436;-76
2023/03/01 09:16:50;;;;;;;19.60;10.07;;;15.80;1.00;;;;;;6158643;23;20417;-78
2023/03/01 09:19:20;;;;;;;14.83;9.37;;;16.30;1.00;;;;;;6156865;23;20433;-77
2023/03/01 09:21:52;;;;;;;18.50;8.03;;;17.00;1.00;;;;;;6159033;23;20506;-78
2023/03/01 09:24:22;;;;;;;11.57;7.80;;;17.30;1.00;;;;;;6157162;23;20860;-77
2023/03/01 09:26:51;;;;;;;14.73;8.50;;;17.50;1.00;;;;;;6124887;23;20518;-76
2023/03/01 09:29:19;;;;;;;13.63;7.70;;;17.80;1.00;;;;;;6154009;23;20780;-75
2023/03/01 09:31:46;;;;;;;12.80;6.80;;;18.00;1.00;;;;;;6156837;23;20418;-76
2023/03/01 09:34:15;;;;;;;18.90;9.13;;;18.40;1.00;;;;;;6160298;23;20431;-77
2023/03/01 09:36:44;;;;;;;16.17;7.33;;;18.40;1.00;;;;;;6158900;23;20793;-75
2023/03/01 09:39:11;;;;;;;11.20;7.10;;;18.60;1.00;;;;;;6157672;23;20534;-79
2023/03/01 09:41:47;;;;;;;12.00;7.07;;;18.70;1.00;;;;;;6159885;23;20909;-76
2023/03/01 09:44:27;;;;;;;14.77;7.47;;;18.60;1.00;;;;;;6158319;23;21436;-75
2023/03/01 09:46:58;;;;;;;19.17;8.93;;;18.50;1.00;;;;;;6158328;23;20495;-78
2023/03/01 09:49:26;;;;;;;22.67;9.07;;;18.20;1.00;;;;;;6159429;23;20803;-80
2023/03/01 09:52:00;;;;;;;10.80;6.33;;;18.90;1.00;;;;;;6159650;23;20482;-79
2023/03/01 09:54:28;;;;;;;14.97;7.87;;;19.20;1.00;;;;;;6144311;23;20482;-80
2023/03/01 09:57:08;;;;;;;10.30;6.03;;;19.20;1.00;;;;;;6139727;23;20778;-79
2023/03/01 09:59:54;;;;;;;10.23;6.37;;;18.20;1.00;;;;;;6159585;23;20426;-79
2023/03/01 10:02:27;;;;;;;15.60;7.10;;;17.90;1.00;;;;;;6160830;23;20430;-75
2023/03/01 10:04:59;;;;;;;15.13;7.80;;;18.10;1.00;;;;;;6156080;23;20431;-76
2023/03/01 10:07:37;;;;;;;11.13;6.73;;;18.40;1.00;;;;;;6157642;23;20517;-76
2023/03/01 10:10:07;;;;;;;10.90;6.53;;;18.50;1.00;;;;;;6158340;23;20481;-75
2023/03/01 10:12:37;;;;;;;20.17;7.83;;;18.40;1.00;;;;;;6157170;23;20419;-74
2023/03/01 10:15:15;;;;;;;8.70;5.47;;;18.20;1.00;;;;;;6158082;23;20423;-77
2023/03/01 10:17:47;;;;;;;8.30;5.50;;;18.20;1.00;;;;;;6131722;23;20442;-74
2023/03/01 10:20:23;;;;;;;15.63;6.53;;;18.30;1.00;;;;;;6157164;23;20917;-78
2023/03/01 10:22:52;;;;;;;25.80;10.07;;;17.60;1.00;;;;;;6158054;23;20434;-78
2023/03/01 10:25:33;;;;;;;12.80;7.33;;;17.10;1.00;;;;;;6157132;23;20953;-77
2023/03/01 10:28:06;;;;;;;10.73;6.60;;;17.40;1.00;;;;;;6159923;23;20466;-77
2023/03/01 10:30:39;;;;;;;16.30;8.57;;;17.10;1.00;;;;;;6158601;23;20991;-78
2023/03/01 10:33:18;;;;;;;13.83;7.43;;;17.40;1.00;;;;;;6157567;23;20469;-76
2023/03/01 10:35:45;;;;;;;12.80;6.40;;;18.30;1.00;;;;;;6157665;23;20423;-78
2023/03/01 10:38:14;;;;;;;8.57;5.97;;;19.50;1.00;;;;;;6159811;23;20845;-77
2023/03/01 10:40:52;;;;;;;10.13;6.40;;;20.50;1.00;;;;;;6157895;23;20387;-78
2023/03/01 10:43:21;;;;;;;14.30;7.53;;;19.70;1.00;;;;;;6158708;23;20427;-76
2023/03/01 10:45:53;;;;;;;13.43;6.03;;;19.40;1.00;;;;;;6160676;23;20518;-76
2023/03/01 10:48:24;;;;;;;10.30;5.17;;;19.20;1.00;;;;;;6155914;23;20919;-76
2023/03/01 10:51:06;;;;;;;8.10;5.10;;;19.00;1.00;;;;;;6159809;23;20474;-77
2023/03/01 10:53:35;;;;;;;7.47;4.70;;;18.50;1.00;;;;;;6156074;23;21129;-78
2023/03/01 10:56:05;;;;;;;7.77;4.80;;;18.20;1.00;;;;;;6159633;23;20507;-77
2023/03/01 10:58:33;;;;;;;7.83;4.87;;;18.20;1.00;;;;;;6158319;23;21015;-76
2023/03/01 11:01:04;;;;;;;8.57;4.87;;;18.20;1.00;;;;;;6158625;23;21234;-76
2023/03/01 11:03:33;;;;;;;10.03;6.13;;;17.90;1.00;;;;;;6157597;23;20427;-76
2023/03/01 11:06:07;;;;;;;9.00;4.47;;;18.60;1.00;;;;;;6158221;23;21007;-77
2023/03/01 11:08:41;;;;;;;8.47;4.63;;;19.40;1.00;;;;;;6158050;23;21159;-77
2023/03/01 11:11:20;;;;;;;9.97;4.90;;;20.80;1.00;;;;;;6158096;23;20503;-76
2023/03/01 11:14:07;;;;;;;6.57;5.07;;;21.40;1.00;;;;;;6129029;23;21006;-76
2023/03/01 11:16:41;;;;;;;85.20;77.63;;;22.20;1.00;;;;;;6129839;23;20458;-76
2023/03/01 11:19:21;;;;;;;7.80;4.83;;;22.30;1.00;;;;;;6132507;23;20425;-75
2023/03/01 11:21:58;;;;;;;10.13;7.13;;;22.10;1.00;;;;;;6131340;23;20423;-76
2023/03/01 11:24:33;;;;;;;12.20;6.90;;;20.90;1.00;;;;;;6131165;23;20947;-76
2023/03/01 11:27:04;;;;;;;15.13;5.40;;;20.30;1.00;;;;;;6132103;23;20491;-76
2023/03/01 11:29:36;;;;;;;7.30;4.40;;;20.50;1.00;;;;;;6130932;23;20496;-77
2023/03/01 11:32:10;;;;;;;12.70;5.80;;;20.80;1.00;;;;;;6130636;23;20423;-75
2023/03/01 11:34:43;;;;;;;12.40;5.00;;;22.00;1.00;;;;;;6129428;23;20424;-75
2023/03/01 11:37:23;;;;;;;8.30;4.80;;;22.80;1.00;;;;;;6131899;23;20446;-77
2023/03/01 11:39:59;;;;;;;6.17;4.13;;;23.70;1.00;;;;;;6131139;23;20540;-76
2023/03/01 11:42:38;;;;;;;9.23;4.80;;;24.90;1.00;;;;;;6130593;23;20417;-77
2023/03/01 11:45:10;;;;;;;9.20;5.43;;;26.00;1.00;;;;;;6131209;23;20490;-79
2023/03/01 11:47:59;;;;;;;13.83;5.30;;;26.40;1.00;;;;;;6132481;23;20442;-76
2023/03/01 11:50:33;;;;;;;5.00;3.50;;;26.60;1.00;;;;;;6129820;23;20406;-77
2023/03/01 11:53:19;;;;;;;6.83;3.90;;;26.30;1.00;;;;;;6130953;23;20440;-76
2023/03/01 11:56:03;;;;;;;7.10;3.50;;;26.20;1.00;;;;;;6130298;23;20423;-77
2023/03/01 11:58:52;;;;;;;6.80;3.60;;;25.90;1.00;;;;;;6131201;23;20431;-76
2023/03/01 12:01:49;;;;;;;6.63;4.80;;;25.20;1.00;;;;;;6130958;23;20470;-76
2023/03/01 12:04:49;;;;;;;11.80;5.53;;;25.30;1.00;;;;;;6131263;23;20425;-75
2023/03/01 12:07:24;;;;;;;9.43;4.27;;;25.60;1.00;;;;;;6124631;23;20770;-77
2023/03/01 12:10:14;;;;;;;6.37;4.27;;;26.40;1.00;;;;;;6131976;23;20896;-76
2023/03/01 12:12:59;;;;;;;5.90;4.23;;;26.50;1.00;;;;;;6130263;23;20450;-75
2023/03/01 12:15:50;;;;;;;11.77;6.80;;;27.00;1.00;;;;;;6100897;23;20419;-76
2023/03/01 12:18:42;;;;;;;8.43;3.90;;;27.50;1.00;;;;;;6102825;23;20502;-76
2023/03/01 12:21:28;;;;;;;7.17;3.50;;;27.20;1.00;;;;;;6093012;23;20443;-77
2023/03/01 12:24:27;;;;;;;6.63;3.00;;;26.10;1.00;;;;;;6101930;23;20459;-78
2023/03/01 12:27:14;;;;;;;7.17;4.27;;;24.80;1.00;;;;;;6102110;23;20435;-74
2023/03/01 12:29:49;;;;;;;10.17;4.83;;;24.10;1.00;;;;;;6102050;23;20437;-75
2023/03/01 12:32:48;;;;;;;6.20;3.77;;;23.20;1.00;;;;;;6099209;23;20458;-74
2023/03/01 12:35:31;;;;;;;9.30;4.40;;;22.20;1.00;;;;;;6098394;23;20434;-75
2023/03/01 12:38:13;;;;;;;11.13;4.03;;;22.70;1.00;;;;;;6099681;23;20432;-75
2023/03/01 12:41:07;;;;;;;6.77;4.50;;;23.60;1.00;;;;;;6099280;23;20512;-75
2023/03/01 12:43:52;;;;;;;8.27;4.67;;;24.90;1.00;;;;;;6099317;23;20824;-77
2023/03/01 12:46:39;;;;;;;8.77;4.33;;;25.60;1.00;;;;;;6096374;23;20436;-74
2023/03/01 12:49:12;;;;;;;11.33;3.97;;;25.30;1.00;;;;;;6099685;23;20491;-74
2023/03/01 12:51:44;;;;;;;7.37;3.77;;;24.70;1.00;;;;;;6098645;23;20425;-76
2023/03/01 12:54:23;;;;;;;8.20;3.93;;;23.80;1.00;;;;;;6099029;23;20448;-75
2023/03/01 12:56:52;;;;;;;7.83;4.50;;;23.00;1.00;;;;;;6097877;23;20446;-74
2023/03/01 12:59:26;;;;;;;5.03;3.20;;;22.50;1.00;;;;;;6097503;23;20508;-76
2023/03/01 13:01:57;;;;;;;6.70;4.10;;;21.60;1.00;;;;;;6099343;23;20426;-75
2023/03/01 13:04:55;;;;;;;7.00;3.63;;;20.50;1.00;;;;;;6099970;23;20434;-75